Taugas — V2GS2 — position and weather

sailwx.info

Track history (hours):
 
Tides and Currents Weather Stations Pressure Air Temp Water Temp Dewpoint Dewpoint Depression Visibility Wind Speed Wind Dir Waves Ship Positions

Taugas

Last reported at 2018-Feb-13 00:43 UTC. Time now 2018-Feb-24 20:10 UTC.
Position N 35°57' W 005°35'.
Warning: this ship's position is 11 days out of date.

Length 146 m; draft 6.2 m.

Type: Tanker. MMSI: 304067000.

Date/timePositionNaut miles runAvg speedWind from/ knotsBaromVisibWave heightAir tempDewpointWater temp
2018-Feb-13 00:43N 35°57' W 005°35'312.6
2018-Feb-13 00:30N 35°58' W 005°32'612.2
2018-Feb-13 00:00N 36°01' W 005°25'611.3
2018-Feb-12 23:31N 36°07' W 005°23'2 3.8
2018-Feb-12 22:59N 36°08' W 005°22'0 0.0
2018-Feb-12 22:29N 36°08' W 005°22'0 0.0
2018-Feb-12 21:59N 36°08' W 005°22'0 0.1
2018-Feb-12 21:29N 36°08' W 005°22'0 0.0
2018-Feb-12 20:59N 36°08' W 005°22'0 0.0
2018-Feb-12 20:29N 36°08' W 005°22'0 0.1
2018-Feb-12 19:47N 36°08' W 005°22'0 0.0
2018-Feb-12 19:29N 36°08' W 005°22'0 0.0
2018-Feb-12 13:47N 36°08' W 005°22'0 0.0
2018-Feb-12 13:26N 36°08' W 005°22'1 1.3
2018-Feb-12 13:01N 36°08' W 005°22'3 5.0
2018-Feb-12 12:31N 36°06' W 005°21'2 3.2
2018-Feb-12 12:01N 36°05' W 005°19'3 6.5
2018-Feb-12 11:31N 36°04' W 005°15'0 0.1
2018-Feb-12 11:01N 36°04' W 005°15'1 2.3
2018-Feb-12 10:31N 36°04' W 005°17'0 0.9
2018-Feb-12 10:01N 36°04' W 005°16'4 7.2
2018-Feb-12 09:30N 36°04' W 005°12'  
2018-Feb-09 08:01N 36°30' E 014°16'73715.0
2018-Feb-07 07:01N 33°02' E 028°37'616.2
2018-Feb-07 06:38N 33°00' E 028°43'7416.0
2018-Feb-07 02:00N 32°33' E 030°05'10015.0
2018-Feb-06 19:21N 31°50' E 031°52'815.3
2018-Feb-06 18:48N 31°45' E 031°60'2115.0
2018-Feb-06 17:23N 31°29' E 032°16'913.9
2018-Feb-06 16:45N 31°23' E 032°23'513.6
2018-Feb-06 16:24N 31°18' E 032°22'512.0
2018-Feb-06 15:59N 31°13' E 032°21'9 7.2
2018-Feb-06 14:42N 31°04' E 032°19'5 7.8
2018-Feb-06 14:04N 30°59' E 032°19'110.2
2018-Feb-06 14:00N 30°59' E 032°19'  
Track history (hours):
 
Tides and Currents Weather Stations Pressure Air Temp Water Temp Dewpoint Dewpoint Depression Visibility Wind Speed Wind Dir Waves Ship Positions

Taugas

Last reported at 2018-Feb-13 00:43 UTC. Time now 2018-Feb-24 20:10 UTC.
Position N 35°57' W 005°35'.
Warning: this ship's position is 11 days out of date.

Length 146 m; draft 6.2 m.

Type: Tanker. MMSI: 304067000.

Date/timePositionNaut miles runAvg speedWind from/ knotsBaromVisibWave heightAir tempDewpointWater temp
2018-Feb-13 00:43N 35°57' W 005°35'312.6
2018-Feb-13 00:30N 35°58' W 005°32'612.2
2018-Feb-13 00:00N 36°01' W 005°25'611.3
2018-Feb-12 23:31N 36°07' W 005°23'2 3.8
2018-Feb-12 22:59N 36°08' W 005°22'0 0.0
2018-Feb-12 22:29N 36°08' W 005°22'0 0.0
2018-Feb-12 21:59N 36°08' W 005°22'0 0.1
2018-Feb-12 21:29N 36°08' W 005°22'0 0.0
2018-Feb-12 20:59N 36°08' W 005°22'0 0.0
2018-Feb-12 20:29N 36°08' W 005°22'0 0.1
2018-Feb-12 19:47N 36°08' W 005°22'0 0.0
2018-Feb-12 19:29N 36°08' W 005°22'0 0.0
2018-Feb-12 13:47N 36°08' W 005°22'0 0.0
2018-Feb-12 13:26N 36°08' W 005°22'1 1.3
2018-Feb-12 13:01N 36°08' W 005°22'3 5.0
2018-Feb-12 12:31N 36°06' W 005°21'2 3.2
2018-Feb-12 12:01N 36°05' W 005°19'3 6.5
2018-Feb-12 11:31N 36°04' W 005°15'0 0.1
2018-Feb-12 11:01N 36°04' W 005°15'1 2.3
2018-Feb-12 10:31N 36°04' W 005°17'0 0.9
2018-Feb-12 10:01N 36°04' W 005°16'4 7.2
2018-Feb-12 09:30N 36°04' W 005°12'  
2018-Feb-09 08:01N 36°30' E 014°16'73715.0
2018-Feb-07 07:01N 33°02' E 028°37'616.2
2018-Feb-07 06:38N 33°00' E 028°43'7416.0
2018-Feb-07 02:00N 32°33' E 030°05'10015.0
2018-Feb-06 19:21N 31°50' E 031°52'815.3
2018-Feb-06 18:48N 31°45' E 031°60'2115.0
2018-Feb-06 17:23N 31°29' E 032°16'913.9
2018-Feb-06 16:45N 31°23' E 032°23'513.6
2018-Feb-06 16:24N 31°18' E 032°22'512.0
2018-Feb-06 15:59N 31°13' E 032°21'9 7.2
2018-Feb-06 14:42N 31°04' E 032°19'5 7.8
2018-Feb-06 14:04N 30°59' E 032°19'110.2
2018-Feb-06 14:00N 30°59' E 032°19'  

Dump ship's entire track history